createdAt,value
2022-08-25T00:01:44.673Z,95152.22
2022-08-25T00:04:15.316Z,95149.81
2022-08-25T00:06:43.602Z,95156.59
2022-08-25T00:09:13.448Z,95150.66
2022-08-25T00:11:42.827Z,95151.34
2022-08-25T00:14:14.242Z,95157.72
2022-08-25T00:16:41.340Z,95156.22
2022-08-25T00:19:12.874Z,95152.06
2022-08-25T00:21:39.676Z,95153.16
2022-08-25T00:24:06.846Z,95151.44
2022-08-25T00:26:33.499Z,95157.63
2022-08-25T00:29:01.745Z,95153.13
2022-08-25T00:31:38.879Z,95161.16
2022-08-25T00:34:13.100Z,95151.50
2022-08-25T00:36:40.316Z,95153.69
2022-08-25T00:39:10.121Z,95153.06
2022-08-25T00:41:38.824Z,95155.63
2022-08-25T00:44:08.524Z,95152.88
2022-08-25T00:46:43.697Z,95156.69
2022-08-25T00:49:25.338Z,95156.59
2022-08-25T00:52:03.971Z,95167.34
2022-08-25T00:54:37.641Z,95168.19
2022-08-25T00:57:07.358Z,95173.53
2022-08-25T00:59:35.003Z,95184.41
2022-08-25T01:02:03.720Z,95182.28
2022-08-25T01:04:30.704Z,95189.84
2022-08-25T01:07:00.534Z,95190.88
2022-08-25T01:09:31.424Z,95192.94
2022-08-25T01:11:59.984Z,95185.47
2022-08-25T01:14:30.153Z,95193.91
2022-08-25T01:16:57.591Z,95193.63
2022-08-25T01:19:26.920Z,95197.22
2022-08-25T01:21:54.068Z,95203.94
2022-08-25T01:24:30.957Z,95197.25
2022-08-25T01:26:58.272Z,95200.41
2022-08-25T01:29:25.651Z,95200.34
2022-08-25T01:31:59.970Z,95199.66
2022-08-25T01:34:30.140Z,95187.44
2022-08-25T01:36:58.956Z,95181.25
2022-08-25T01:39:28.935Z,95178.75
2022-08-25T01:42:09.671Z,95176.09
2022-08-25T01:44:40.040Z,95172.16
2022-08-25T01:47:07.926Z,95168.28
2022-08-25T01:49:34.766Z,95171.19
2022-08-25T01:52:33.005Z,95179.00
2022-08-25T01:54:59.642Z,95190.53
2022-08-25T01:57:29.065Z,95184.16
2022-08-25T01:59:55.710Z,95183.69
2022-08-25T02:02:22.441Z,95186.88
2022-08-25T02:04:49.091Z,95182.19
2022-08-25T02:07:17.726Z,95188.56
2022-08-25T02:09:44.389Z,95192.41
2022-08-25T02:12:14.345Z,95191.06
2022-08-25T02:14:41.068Z,95185.84
2022-08-25T02:17:09.026Z,95176.94
2022-08-25T02:19:35.787Z,95174.19
2022-08-25T02:22:02.628Z,95189.03
2022-08-25T02:24:29.322Z,95175.47
2022-08-25T02:26:56.067Z,95180.13
2022-08-25T02:29:22.794Z,95176.00
2022-08-25T02:31:49.783Z,95180.13
2022-08-25T02:34:16.538Z,95173.81
2022-08-25T02:36:43.231Z,95173.88
2022-08-25T02:39:10.995Z,95179.72
2022-08-25T02:41:37.916Z,95178.94
2022-08-25T02:44:05.619Z,95173.22
2022-08-25T02:46:32.316Z,95168.97
2022-08-25T02:48:59.510Z,95182.84
2022-08-25T02:51:27.588Z,95187.00
2022-08-25T02:53:54.229Z,95186.50
2022-08-25T02:56:20.964Z,95182.94
2022-08-25T02:58:47.796Z,95182.69
2022-08-25T03:01:16.235Z,95176.88
2022-08-25T03:03:46.057Z,95165.13
2022-08-25T03:06:16.240Z,95165.16
2022-08-25T03:08:43.661Z,95163.38
2022-08-25T03:11:10.854Z,95177.31
2022-08-25T03:13:38.139Z,95169.56
2022-08-25T03:16:11.246Z,95177.75
2022-08-25T03:18:41.012Z,95165.47
2022-08-25T03:21:07.958Z,95164.13
2022-08-25T03:23:34.973Z,95154.53
2022-08-25T03:26:02.006Z,95152.56
2022-08-25T03:28:30.062Z,95148.53
2022-08-25T03:30:57.433Z,95143.66
2022-08-25T03:33:24.049Z,95149.09
2022-08-25T03:35:50.676Z,95148.28
2022-08-25T03:38:17.292Z,95153.09
2022-08-25T03:40:44.103Z,95155.22
2022-08-25T03:43:10.759Z,95146.50
2022-08-25T03:45:45.033Z,95156.09
2022-08-25T03:48:12.414Z,95146.13
2022-08-25T03:50:51.535Z,95146.38
2022-08-25T03:53:21.992Z,95136.84
2022-08-25T03:55:48.660Z,95137.78
2022-08-25T03:58:15.701Z,95147.50
2022-08-25T04:00:42.447Z,95148.97
2022-08-25T04:03:09.418Z,95148.31
2022-08-25T04:05:36.098Z,95146.72
2022-08-25T04:08:03.371Z,95152.88
2022-08-25T04:10:30.962Z,95155.84
2022-08-25T04:12:58.251Z,95156.53
2022-08-25T04:15:24.923Z,95152.13
2022-08-25T04:17:55.695Z,95151.28
2022-08-25T04:20:22.361Z,95150.38
2022-08-25T04:22:49.194Z,95151.84
2022-08-25T04:25:15.845Z,95154.44
2022-08-25T04:27:42.479Z,95149.75
2022-08-25T04:30:09.836Z,95148.47
2022-08-25T04:32:40.184Z,95146.38
2022-08-25T04:35:07.358Z,95152.03
2022-08-25T04:37:34.525Z,95156.94
2022-08-25T04:40:01.867Z,95165.19
2022-08-25T04:42:28.556Z,95158.25
2022-08-25T04:44:55.212Z,95153.16
2022-08-25T04:47:22.523Z,95154.50
2022-08-25T04:49:49.399Z,95152.66
2022-08-25T04:52:16.222Z,95159.88
2022-08-25T04:54:43.577Z,95153.44
2022-08-25T04:57:10.647Z,95150.13
2022-08-25T04:59:37.349Z,95154.94
2022-08-25T05:02:05.455Z,95146.59
2022-08-25T05:04:35.211Z,95145.34
2022-08-25T05:07:03.075Z,95143.84
2022-08-25T05:09:32.436Z,95145.19
2022-08-25T05:12:01.250Z,95143.78
2022-08-25T05:14:28.880Z,95153.69
2022-08-25T05:16:56.139Z,95150.25
2022-08-25T05:19:23.107Z,95145.63
2022-08-25T05:21:49.832Z,95154.47
2022-08-25T05:24:16.511Z,95153.88
2022-08-25T05:26:45.096Z,95155.97
2022-08-25T05:29:11.790Z,95159.44
2022-08-25T05:31:43.133Z,95153.97
2022-08-25T05:34:10.725Z,95160.00
2022-08-25T05:36:37.711Z,95164.31
2022-08-25T05:39:04.705Z,95166.09
2022-08-25T05:41:31.585Z,95161.63
2022-08-25T05:43:58.449Z,95160.69
2022-08-25T05:46:27.711Z,95165.28
2022-08-25T05:48:58.325Z,95156.50
2022-08-25T05:51:24.941Z,95168.97
2022-08-25T05:53:51.626Z,95174.13
2022-08-25T05:56:19.589Z,95166.75
2022-08-25T05:58:46.753Z,95164.97
2022-08-25T06:01:26.689Z,95160.50
2022-08-25T06:03:53.607Z,95155.28
2022-08-25T06:06:22.713Z,95155.06
2022-08-25T06:08:49.446Z,95156.59
2022-08-25T06:11:16.160Z,95150.34
2022-08-25T06:13:43.648Z,95154.75
2022-08-25T06:16:10.386Z,95154.78
2022-08-25T06:18:37.138Z,95155.81
2022-08-25T06:21:14.688Z,95152.09
2022-08-25T06:23:41.614Z,95169.59
2022-08-25T06:26:18.141Z,95158.09
2022-08-25T06:28:47.459Z,95160.38
2022-08-25T06:31:14.905Z,95156.38
2022-08-25T06:33:41.623Z,95154.09
2022-08-25T06:36:08.442Z,95162.28
2022-08-25T06:38:35.440Z,95161.81
2022-08-25T06:41:06.591Z,95156.00
2022-08-25T06:43:34.786Z,95152.00
2022-08-25T06:46:16.623Z,95150.16
2022-08-25T06:48:43.943Z,95150.41
2022-08-25T06:51:14.375Z,95152.78
2022-08-25T06:53:42.402Z,95152.63
2022-08-25T06:56:09.669Z,95153.06
2022-08-25T06:58:37.571Z,95162.63
2022-08-25T07:01:12.347Z,95163.84
2022-08-25T07:03:43.212Z,95154.03
2022-08-25T07:06:10.359Z,95161.34
2022-08-25T07:08:37.020Z,95161.16
2022-08-25T07:11:07.880Z,95164.38
2022-08-25T07:13:44.427Z,95165.31
2022-08-25T07:16:11.446Z,95155.41
2022-08-25T07:18:39.013Z,95152.22
2022-08-25T07:21:05.967Z,95147.31
2022-08-25T07:23:36.562Z,95148.56
2022-08-25T07:26:36.282Z,95145.59
2022-08-25T07:29:12.720Z,95147.16
2022-08-25T07:31:40.224Z,95154.53
2022-08-25T07:34:07.944Z,95146.22
2022-08-25T07:36:36.029Z,95146.47
2022-08-25T07:39:04.121Z,95143.03
2022-08-25T07:41:31.199Z,95139.25
2022-08-25T07:43:59.791Z,95145.38
2022-08-25T07:46:26.756Z,95151.69
2022-08-25T07:48:53.606Z,95155.56
2022-08-25T07:51:20.338Z,95144.25
2022-08-25T07:53:47.020Z,95149.38
2022-08-25T07:56:16.285Z,95152.22
2022-08-25T07:58:43.605Z,95157.94
2022-08-25T08:01:17.160Z,95153.81
2022-08-25T08:03:50.815Z,95163.53
2022-08-25T08:06:21.790Z,95156.72
2022-08-25T08:08:50.635Z,95158.03
2022-08-25T08:11:23.936Z,95158.16
2022-08-25T08:13:50.917Z,95158.88
2022-08-25T08:16:19.920Z,95159.72
2022-08-25T08:18:47.671Z,95160.47
2022-08-25T08:21:19.191Z,95151.72
2022-08-25T08:23:47.268Z,95166.47
2022-08-25T08:26:14.342Z,95163.81
2022-08-25T08:28:41.076Z,95166.53
2022-08-25T08:31:10.498Z,95166.22
2022-08-25T08:33:40.882Z,95163.50
2022-08-25T08:36:10.944Z,95170.09
2022-08-25T08:38:40.513Z,95168.25
2022-08-25T08:41:25.442Z,95157.78
2022-08-25T08:44:07.852Z,95162.72
2022-08-25T08:46:50.627Z,95154.84
2022-08-25T08:49:29.467Z,95152.09
2022-08-25T08:52:02.759Z,95152.00
2022-08-25T08:54:36.276Z,95155.09
2022-08-25T08:57:13.979Z,95150.56
2022-08-25T08:59:55.172Z,95149.09
2022-08-25T09:02:56.248Z,95149.16
2022-08-25T09:05:29.454Z,95151.63
2022-08-25T09:08:10.569Z,95146.59
2022-08-25T09:11:05.374Z,95145.03
2022-08-25T09:13:55.296Z,95147.19
2022-08-25T09:16:41.962Z,95139.59
2022-08-25T09:19:37.396Z,95137.53
2022-08-25T09:22:35.724Z,95144.56
2022-08-25T09:25:48.790Z,95143.56
2022-08-25T09:28:40.709Z,95148.38
2022-08-25T09:31:29.573Z,95145.47
2022-08-25T09:34:00.336Z,95141.84
2022-08-25T09:36:27.496Z,95156.31
2022-08-25T09:38:54.396Z,95159.47
2022-08-25T09:41:46.671Z,95146.03
2022-08-25T09:44:26.610Z,95152.41
2022-08-25T09:47:15.203Z,95147.63
2022-08-25T09:49:43.800Z,95142.69
2022-08-25T09:52:30.068Z,95152.25
2022-08-25T09:55:13.126Z,95144.25
2022-08-25T09:57:42.935Z,95142.47
2022-08-25T10:00:27.075Z,95147.31
2022-08-25T10:03:14.185Z,95141.50
2022-08-25T10:05:57.321Z,95144.47
2022-08-25T10:08:32.665Z,95143.66
2022-08-25T10:11:03.688Z,95138.66
2022-08-25T10:13:42.179Z,95134.66
2022-08-25T10:16:19.979Z,95132.75
2022-08-25T10:19:06.010Z,95124.28
2022-08-25T10:21:34.175Z,95120.44
2022-08-25T10:24:02.317Z,95122.50
2022-08-25T10:27:01.436Z,95112.91
2022-08-25T10:30:12.964Z,95118.53
2022-08-25T10:32:45.555Z,95112.34
2022-08-25T10:35:18.209Z,95112.50
2022-08-25T10:38:06.513Z,95101.38
2022-08-25T10:40:33.434Z,95100.16
2022-08-25T10:43:19.255Z,95096.75
2022-08-25T10:46:04.947Z,95102.22
2022-08-25T10:48:44.730Z,95094.44
2022-08-25T10:51:35.826Z,95088.03
2022-08-25T10:54:25.831Z,95084.75
2022-08-25T10:57:13.603Z,95087.06
2022-08-25T10:59:45.839Z,95083.75
2022-08-25T11:02:16.346Z,95079.66
2022-08-25T11:05:03.496Z,95075.78
2022-08-25T11:07:54.609Z,95075.22
2022-08-25T11:10:33.230Z,95068.09
2022-08-25T11:13:07.702Z,95073.03
2022-08-25T11:16:13.684Z,95064.31
2022-08-25T11:19:22.092Z,95056.59
2022-08-25T11:22:13.050Z,95058.53
2022-08-25T11:24:56.816Z,95053.72
2022-08-25T11:27:37.011Z,95051.31
2022-08-25T11:30:12.202Z,95043.13
2022-08-25T11:32:43.799Z,95043.22
2022-08-25T11:35:14.518Z,95043.84
2022-08-25T11:38:14.336Z,95038.75
2022-08-25T11:41:29.060Z,95030.53
2022-08-25T11:44:27.728Z,95034.69
2022-08-25T11:47:00.691Z,95034.97
2022-08-25T11:49:51.699Z,95033.53
2022-08-25T11:52:34.766Z,95028.34
2022-08-25T11:55:27.886Z,95027.97
2022-08-25T11:58:33.602Z,95028.66
2022-08-25T12:01:04.303Z,95026.69
2022-08-25T12:03:36.971Z,95027.72
2022-08-25T12:06:28.096Z,95026.31
2022-08-25T12:09:00.499Z,95022.00
2022-08-25T12:11:39.362Z,95028.84
2022-08-25T12:14:28.590Z,95026.88
2022-08-25T12:16:55.500Z,95035.78
2022-08-25T12:19:25.142Z,95028.63
2022-08-25T12:21:57.825Z,95023.38
2022-08-25T12:24:47.585Z,95024.94
2022-08-25T12:27:46.234Z,95022.44
2022-08-25T12:30:21.096Z,95022.22
2022-08-25T12:32:50.967Z,95019.50
2022-08-25T12:35:23.668Z,95021.13
2022-08-25T12:38:01.868Z,95017.41
2022-08-25T12:40:52.979Z,95015.00
2022-08-25T12:43:19.674Z,95009.66
2022-08-25T12:45:53.121Z,95006.59
2022-08-25T12:48:29.096Z,95000.38
2022-08-25T12:51:15.006Z,95003.44
2022-08-25T12:53:45.210Z,94996.75
2022-08-25T12:56:26.534Z,94993.56
2022-08-25T12:59:01.449Z,94992.22
2022-08-25T13:01:42.315Z,94983.94
2022-08-25T13:04:27.524Z,94983.84
2022-08-25T13:07:41.513Z,94968.88
2022-08-25T13:10:29.701Z,94973.53
2022-08-25T13:13:17.747Z,94967.94
2022-08-25T13:15:48.692Z,94967.63
2022-08-25T13:18:34.022Z,94965.31
2022-08-25T13:21:23.109Z,94966.91
2022-08-25T13:23:53.848Z,94967.19
2022-08-25T13:26:27.780Z,94961.63
2022-08-25T13:29:12.982Z,94960.94
2022-08-25T13:32:00.938Z,94957.91
2022-08-25T13:34:42.874Z,94953.78
2022-08-25T13:37:23.002Z,94949.41
2022-08-25T13:39:58.676Z,94954.28
2022-08-25T13:42:28.886Z,94956.38
2022-08-25T13:44:56.237Z,94946.22
2022-08-25T13:47:45.091Z,94946.06
2022-08-25T13:50:31.283Z,94943.59
2022-08-25T13:53:23.254Z,94939.06
2022-08-25T13:56:00.980Z,94931.50
2022-08-25T13:58:39.201Z,94941.44
2022-08-25T14:01:31.447Z,94934.38
2022-08-25T14:04:25.362Z,94928.72
2022-08-25T14:07:19.280Z,94930.16
2022-08-25T14:09:57.506Z,94935.28
2022-08-25T14:12:33.275Z,94933.72
2022-08-25T14:15:32.173Z,94928.97
2022-08-25T14:18:09.774Z,94927.75
2022-08-25T14:20:47.803Z,94927.09
2022-08-25T14:23:19.411Z,94923.88
2022-08-25T14:25:48.684Z,94922.03
2022-08-25T14:28:20.802Z,94920.34
2022-08-25T14:30:51.947Z,94924.16
2022-08-25T14:33:26.596Z,94922.25
2022-08-25T14:35:58.429Z,94913.22
2022-08-25T14:38:25.677Z,94915.91
2022-08-25T14:40:53.168Z,94909.81
2022-08-25T14:43:24.041Z,94904.03
2022-08-25T14:46:02.553Z,94912.91
2022-08-25T14:48:40.506Z,94912.38
2022-08-25T14:51:14.076Z,94909.94
2022-08-25T14:53:42.735Z,94905.31
2022-08-25T14:56:10.411Z,94902.09
2022-08-25T14:58:48.356Z,94904.31
2022-08-25T15:01:28.459Z,94904.50
2022-08-25T15:04:02.288Z,94899.78
2022-08-25T15:06:29.948Z,94896.47
2022-08-25T15:08:56.833Z,94894.06
2022-08-25T15:11:24.322Z,94902.50
2022-08-25T15:13:53.124Z,94889.34
2022-08-25T15:16:48.083Z,94884.97
2022-08-25T15:19:18.828Z,94888.38
2022-08-25T15:21:47.947Z,94883.16
2022-08-25T15:24:17.339Z,94874.16
2022-08-25T15:29:22.764Z,94875.03
2022-08-25T15:31:50.653Z,94875.69
2022-08-25T15:34:17.360Z,94877.06
2022-08-25T15:36:45.630Z,94880.00
2022-08-25T15:39:12.285Z,94874.88
2022-08-25T15:41:40.133Z,94878.72
2022-08-25T15:44:09.654Z,94875.16
2022-08-25T15:46:38.502Z,94870.66
2022-08-25T15:49:07.868Z,94879.78
2022-08-25T15:51:35.049Z,94873.63
2022-08-25T15:54:01.714Z,94866.06
2022-08-25T15:56:28.438Z,94871.59
2022-08-25T15:58:55.399Z,94859.25
2022-08-25T16:01:25.188Z,94864.19
2022-08-25T16:03:52.503Z,94856.72
2022-08-25T16:06:19.426Z,94859.72
2022-08-25T16:08:46.445Z,94864.19
2022-08-25T16:11:20.323Z,94863.34
2022-08-25T16:13:49.423Z,94865.75
2022-08-25T16:16:18.569Z,94862.81
2022-08-25T16:18:46.108Z,94849.56
2022-08-25T16:21:17.546Z,94856.56
2022-08-25T16:23:44.224Z,94857.88
2022-08-25T16:26:13.034Z,94856.63
2022-08-25T16:28:43.741Z,94851.38
2022-08-25T16:31:13.031Z,94854.84
2022-08-25T16:36:13.219Z,94845.19
2022-08-25T16:38:41.823Z,94844.38
2022-08-25T16:41:22.254Z,94839.53
2022-08-25T16:43:49.584Z,94847.03
2022-08-25T16:46:19.583Z,94843.66
2022-08-25T16:48:47.229Z,94837.88
2022-08-25T16:51:22.461Z,94837.84
2022-08-25T16:53:52.198Z,94831.19
2022-08-25T16:56:18.829Z,94835.34
2022-08-25T16:58:45.803Z,94826.72
2022-08-25T17:01:12.856Z,94831.75
2022-08-25T17:03:43.883Z,94827.44
2022-08-25T17:06:11.219Z,94834.03
2022-08-25T17:08:37.911Z,94831.03
2022-08-25T17:11:07.708Z,94835.63
2022-08-25T17:13:35.313Z,94823.44
2022-08-25T17:16:03.162Z,94827.69
2022-08-25T17:18:30.445Z,94831.44
2022-08-25T17:21:04.301Z,94841.34
2022-08-25T17:23:33.506Z,94833.34
2022-08-25T17:26:02.177Z,94828.72
2022-08-25T17:28:29.562Z,94833.00
2022-08-25T17:30:56.482Z,94822.63
2022-08-25T17:33:24.137Z,94835.13
2022-08-25T17:35:53.563Z,94831.78
2022-08-25T17:38:23.987Z,94834.16
2022-08-25T17:40:52.884Z,94830.19
2022-08-25T17:43:23.821Z,94828.47
2022-08-25T17:45:52.159Z,94832.97
2022-08-25T17:48:19.887Z,94829.72
2022-08-25T17:50:46.865Z,94837.22
2022-08-25T17:53:14.336Z,94836.78
2022-08-25T17:55:47.640Z,94832.03
2022-08-25T17:58:16.851Z,94830.38
2022-08-25T18:00:44.247Z,94831.88
2022-08-25T18:03:11.207Z,94831.31
2022-08-25T18:05:38.707Z,94827.69
2022-08-25T18:08:10.683Z,94833.97
2022-08-25T18:10:38.388Z,94835.19
2022-08-25T18:13:05.092Z,94834.59
2022-08-25T18:15:32.464Z,94840.56
2022-08-25T18:17:59.619Z,94841.00
2022-08-25T18:20:30.841Z,94843.63
2022-08-25T18:22:57.706Z,94847.94
2022-08-25T18:25:26.760Z,94846.75
2022-08-25T18:27:55.222Z,94845.94
2022-08-25T18:30:22.548Z,94853.63
2022-08-25T18:32:53.007Z,94859.16
2022-08-25T18:35:21.723Z,94857.91
2022-08-25T18:37:50.900Z,94861.31
2022-08-25T18:40:17.793Z,94867.22
2022-08-25T18:42:44.705Z,94867.91
2022-08-25T18:45:12.485Z,94877.25
2022-08-25T18:47:39.350Z,94866.38
2022-08-25T18:50:06.736Z,94884.38
2022-08-25T18:52:34.731Z,94883.59
2022-08-25T18:55:01.670Z,94890.09
2022-08-25T18:57:28.852Z,94895.03
2022-08-25T18:59:55.627Z,94899.63
2022-08-25T19:02:22.488Z,94898.44
2022-08-25T19:04:49.993Z,94901.47
2022-08-25T19:07:16.830Z,94907.13
2022-08-25T19:09:43.614Z,94905.63
2022-08-25T19:12:11.637Z,94899.31
2022-08-25T19:14:49.171Z,94898.75
2022-08-25T19:17:15.809Z,94899.03
2022-08-25T19:19:42.579Z,94915.31
2022-08-25T19:22:38.023Z,94902.53
2022-08-25T19:24:57.751Z,94905.06
2022-08-25T19:27:25.403Z,94923.09
2022-08-25T19:29:52.896Z,94914.53
2022-08-25T19:32:20.152Z,94919.00
2022-08-25T19:34:51.312Z,94915.63
2022-08-25T19:37:18.672Z,94914.84
2022-08-25T19:39:52.904Z,94913.44
2022-08-25T19:42:37.816Z,94916.16
2022-08-25T19:45:11.370Z,94916.84
2022-08-25T19:47:38.864Z,94915.41
2022-08-25T19:50:07.639Z,94911.69
2022-08-25T19:52:34.505Z,94925.63
2022-08-25T19:55:01.124Z,94911.75
2022-08-25T19:57:42.185Z,94917.78
2022-08-25T20:00:17.753Z,94917.66
2022-08-25T20:02:44.982Z,94922.56
2022-08-25T20:05:12.923Z,94924.34
2022-08-25T20:07:39.958Z,94926.69
2022-08-25T20:10:14.137Z,94935.16
2022-08-25T20:12:42.560Z,94937.81
2022-08-25T20:15:11.526Z,94928.22
2022-08-25T20:17:38.306Z,94939.28
2022-08-25T20:20:11.517Z,94932.88
2022-08-25T20:22:38.676Z,94933.19
2022-08-25T20:25:13.089Z,94931.97
2022-08-25T20:27:50.432Z,94939.41
2022-08-25T20:30:24.631Z,94950.31
2022-08-25T20:32:53.342Z,94942.66
2022-08-25T20:35:21.521Z,94953.25
2022-08-25T20:37:55.385Z,94957.13
2022-08-25T20:40:25.765Z,94963.13
2022-08-25T20:42:54.428Z,94965.38
2022-08-25T20:45:22.746Z,94959.19
2022-08-25T20:47:51.624Z,94970.41
2022-08-25T20:50:19.410Z,94963.22
2022-08-25T20:52:46.058Z,94965.41
2022-08-25T20:55:15.187Z,94974.41
2022-08-25T20:57:45.598Z,94970.22
2022-08-25T21:00:13.210Z,94967.72
2022-08-25T21:02:40.093Z,94976.41
2022-08-25T21:05:07.901Z,94976.41
2022-08-25T21:07:36.060Z,94968.00
2022-08-25T21:10:06.549Z,94980.28
2022-08-25T21:12:38.139Z,94976.66
2022-08-25T21:15:05.281Z,94973.16
2022-08-25T21:17:33.799Z,94971.78
2022-08-25T21:20:00.478Z,94976.09
2022-08-25T21:22:27.760Z,94975.59
2022-08-25T21:24:55.117Z,94979.09
2022-08-25T21:27:24.020Z,94979.09
2022-08-25T21:29:54.899Z,94980.53
2022-08-25T21:32:23.251Z,94966.00
2022-08-25T21:34:54.620Z,94980.19
2022-08-25T21:37:21.387Z,94978.91
2022-08-25T21:39:48.673Z,94977.66
2022-08-25T21:42:15.355Z,94981.13
2022-08-25T21:44:42.008Z,94977.50
2022-08-25T21:47:09.230Z,94989.91
2022-08-25T21:49:37.617Z,94983.09
2022-08-25T21:52:05.357Z,94980.22
2022-08-25T21:54:32.559Z,94981.34
2022-08-25T21:57:02.096Z,94975.94
2022-08-25T21:59:35.276Z,94976.72
2022-08-25T22:02:05.661Z,94975.88
2022-08-25T22:04:33.832Z,94974.28
2022-08-25T22:07:01.238Z,94980.72
2022-08-25T22:09:29.519Z,94974.34
2022-08-25T22:11:59.248Z,94968.56
2022-08-25T22:14:27.502Z,94975.63
2022-08-25T22:16:55.680Z,94965.28
2022-08-25T22:19:23.716Z,94972.13
2022-08-25T22:21:52.976Z,94964.78
2022-08-25T22:24:22.966Z,94968.31
2022-08-25T22:26:55.560Z,94964.13
2022-08-25T22:29:25.441Z,94969.84
2022-08-25T22:32:00.007Z,94972.44
2022-08-25T22:34:32.949Z,94973.72
2022-08-25T22:37:04.843Z,94966.72
2022-08-25T22:39:34.314Z,94970.03
2022-08-25T22:42:02.371Z,94968.28
2022-08-25T22:44:29.038Z,94967.47
2022-08-25T22:46:55.681Z,94962.22
2022-08-25T22:49:22.888Z,94961.41
2022-08-25T22:51:49.511Z,94958.09
2022-08-25T22:54:16.138Z,94960.69
2022-08-25T22:56:43.417Z,94953.63
2022-08-25T22:59:13.469Z,94960.75
2022-08-25T23:01:42.642Z,94958.28
2022-08-25T23:04:10.755Z,94960.94
2022-08-25T23:06:38.214Z,94955.16
2022-08-25T23:09:07.466Z,94961.09
2022-08-25T23:11:34.855Z,94958.91
2022-08-25T23:14:01.698Z,94962.03
2022-08-25T23:16:28.788Z,94957.22
2022-08-25T23:18:55.500Z,94955.03
2022-08-25T23:21:24.262Z,94954.09
2022-08-25T23:23:52.024Z,94957.63
2022-08-25T23:26:19.320Z,94952.38
2022-08-25T23:28:50.723Z,94947.25
2022-08-25T23:31:17.780Z,94952.84
2022-08-25T23:33:45.235Z,94952.03
2022-08-25T23:36:14.873Z,94950.03
2022-08-25T23:38:44.631Z,94957.41
2022-08-25T23:41:21.500Z,94949.75
2022-08-25T23:43:50.595Z,94951.59
2022-08-25T23:46:20.415Z,94946.91
2022-08-25T23:48:48.474Z,94950.78
2022-08-25T23:51:27.219Z,94945.78
2022-08-25T23:53:54.769Z,94950.31
2022-08-25T23:56:23.224Z,94944.78
2022-08-25T23:58:51.299Z,94937.50
